createdAt,value
2022-08-02T00:01:14.952Z,73.5
2022-08-02T00:06:51.277Z,73.5
2022-08-02T00:12:26.010Z,73.5
2022-08-02T00:18:01.186Z,73.6
2022-08-02T00:24:30.714Z,73.8
2022-08-02T00:30:06.467Z,73.9
2022-08-02T00:35:41.447Z,74
2022-08-02T00:41:16.209Z,74.2
2022-08-02T00:46:51.094Z,74.4
2022-08-02T00:52:25.842Z,74.5
2022-08-02T00:58:01.780Z,74.6
2022-08-02T01:03:36.790Z,74.7
2022-08-02T01:09:11.466Z,74.9
2022-08-02T01:14:46.353Z,75
2022-08-02T01:20:21.165Z,75.1
2022-08-02T01:25:55.890Z,75.3
2022-08-02T01:31:31.730Z,75.4
2022-08-02T01:37:07.444Z,75.5
2022-08-02T01:42:42.557Z,75.7
2022-08-02T01:48:17.275Z,75.8
2022-08-02T01:53:52.036Z,75.9
2022-08-02T01:59:26.920Z,75.9
2022-08-02T02:05:01.741Z,76.1
2022-08-02T02:10:37.725Z,76.2
2022-08-02T02:16:13.016Z,76.4
2022-08-02T02:21:48.275Z,76.6
2022-08-02T02:27:23.308Z,76.7
2022-08-02T02:32:58.237Z,76.8
2022-08-02T02:38:32.998Z,77
2022-08-02T02:44:09.128Z,77
2022-08-02T02:49:44.169Z,77.1
2022-08-02T02:55:18.823Z,77
2022-08-02T03:00:54.145Z,77
2022-08-02T03:06:30.073Z,77.1
2022-08-02T03:12:04.927Z,77.4
2022-08-02T03:17:39.955Z,77.5
2022-08-02T03:23:15.214Z,77.6
2022-08-02T03:28:50.109Z,77.7
2022-08-02T03:34:24.856Z,77.8
2022-08-02T03:39:59.397Z,78
2022-08-02T03:45:34.200Z,78.1
2022-08-02T03:51:10.439Z,78.1
2022-08-02T03:56:45.235Z,78.3
2022-08-02T04:02:20.143Z,78.3
2022-08-02T04:08:38.257Z,78.5
2022-08-02T04:14:14.263Z,78.5
2022-08-02T04:19:49.558Z,78.6
2022-08-02T04:25:40.829Z,78.7
2022-08-02T04:31:17.326Z,78.6
2022-08-02T04:36:52.257Z,81.5
2022-08-02T04:42:26.995Z,82.7
2022-08-02T04:48:06.209Z,83
2022-08-02T04:53:41.667Z,84.1
2022-08-02T04:59:16.439Z,84.1
2022-08-02T05:04:51.277Z,84.1
2022-08-02T05:10:34.765Z,83.8
2022-08-02T05:16:09.655Z,83.8
2022-08-02T05:21:44.698Z,84.2
2022-08-02T05:27:22.305Z,83.5
2022-08-02T05:32:57.291Z,83.4
2022-08-02T05:38:32.321Z,83.3
2022-08-02T05:44:13.578Z,83.1
2022-08-02T05:49:48.458Z,82.8
2022-08-02T05:55:23.537Z,82
2022-08-02T06:00:58.703Z,82.1
2022-08-02T06:06:34.051Z,81.1
2022-08-02T06:12:08.841Z,81.5
2022-08-02T06:18:05.486Z,80.3
2022-08-02T06:23:38.174Z,80.1
2022-08-02T06:29:39.034Z,79.8
2022-08-02T06:35:15.305Z,80.3
2022-08-02T06:40:49.865Z,81.2
2022-08-02T06:47:12.888Z,80.7
2022-08-02T06:52:49.250Z,80.7
2022-08-02T06:58:25.135Z,80.6
2022-08-02T07:04:00.794Z,80.6
2022-08-02T07:09:36.477Z,80.4
2022-08-02T07:15:11.575Z,80.3
2022-08-02T07:20:46.806Z,80.2
2022-08-02T07:26:21.646Z,80
2022-08-02T07:31:56.553Z,79.8
2022-08-02T07:37:58.183Z,79.7
2022-08-02T07:43:40.346Z,79.5
2022-08-02T07:49:15.603Z,79.4
2022-08-02T07:54:55.853Z,79.2
2022-08-02T08:00:31.570Z,79.1
2022-08-02T08:06:07.403Z,78.9
2022-08-02T08:11:51.110Z,78.9
2022-08-02T08:17:48.578Z,78.9
2022-08-02T08:23:21.430Z,78.8
2022-08-02T08:28:56.368Z,78.7
2022-08-02T08:34:32.493Z,78.6
2022-08-02T08:40:07.596Z,78.7
2022-08-02T08:45:42.823Z,78.6
2022-08-02T08:51:18.905Z,78.5
2022-08-02T08:56:58.538Z,78.6
2022-08-02T09:02:33.351Z,78.6
2022-08-02T09:08:17.022Z,78.8
2022-08-02T09:13:52.032Z,78.7
2022-08-02T09:19:48.719Z,78.5
2022-08-02T09:25:22.481Z,78.9
2022-08-02T09:30:57.436Z,78.9
2022-08-02T09:36:33.974Z,79.1
2022-08-02T09:42:12.410Z,79.1
2022-08-02T09:47:50.999Z,79.2
2022-08-02T09:53:26.363Z,79.1
2022-08-02T09:59:02.112Z,79
2022-08-02T10:04:54.147Z,79.1
2022-08-02T10:10:37.408Z,79.1
2022-08-02T10:16:34.148Z,78.8
2022-08-02T10:22:06.597Z,79
2022-08-02T10:28:05.940Z,78.9
2022-08-02T10:33:42.379Z,78.8
2022-08-02T10:39:24.510Z,78.6
2022-08-02T10:44:59.270Z,78.9
2022-08-02T10:50:34.435Z,78.7
2022-08-02T10:56:10.087Z,78.2
2022-08-02T11:01:45.244Z,77.8
2022-08-02T11:07:22.042Z,77.7
2022-08-02T11:12:57.019Z,77.8
2022-08-02T11:18:53.677Z,77.5
2022-08-02T11:24:26.256Z,77
2022-08-02T11:30:02.314Z,77
2022-08-02T11:35:37.156Z,76.5
2022-08-02T11:41:12.366Z,76.8
2022-08-02T11:47:22.146Z,76.4
2022-08-02T11:52:57.237Z,76
2022-08-02T11:58:32.458Z,76.1
2022-08-02T12:04:07.312Z,75.5
2022-08-02T12:09:42.595Z,75
2022-08-02T12:15:19.205Z,74.4
2022-08-02T12:20:54.017Z,73.9
2022-08-02T12:26:28.867Z,73.9
2022-08-02T12:32:04.034Z,73
2022-08-02T12:37:40.105Z,71.9
2022-08-02T12:43:14.987Z,68.9
2022-08-02T12:49:18.588Z,67.3
2022-08-02T12:54:55.345Z,65.6
2022-08-02T13:00:31.127Z,64.3
2022-08-02T13:06:42.900Z,62.2
2022-08-02T13:12:22.056Z,60.5
2022-08-02T13:17:57.305Z,59
2022-08-02T13:23:55.303Z,58.6
2022-08-02T13:29:30.641Z,59.2
2022-08-02T13:35:18.491Z,59.4
2022-08-02T13:41:05.172Z,58.9
2022-08-02T13:46:46.331Z,57.7
2022-08-02T13:52:21.628Z,56.9
2022-08-02T13:57:56.788Z,56.8
2022-08-02T14:04:09.662Z,56.1
2022-08-02T14:09:45.397Z,56
2022-08-02T14:15:20.418Z,55.2
2022-08-02T14:20:55.526Z,54.9
2022-08-02T14:26:30.454Z,54.9
2022-08-02T14:32:06.293Z,54.2
2022-08-02T14:37:41.313Z,53.9
2022-08-02T14:43:19.953Z,52.4
2022-08-02T14:48:55.148Z,51.6
2022-08-02T14:54:31.520Z,51.5
2022-08-02T15:00:06.865Z,50.2
2022-08-02T15:05:42.594Z,49.6
2022-08-02T15:11:17.820Z,49.3
2022-08-02T15:16:59.071Z,48.6
2022-08-02T15:22:34.984Z,49.1
2022-08-02T15:28:11.727Z,49.1
2022-08-02T15:33:46.697Z,47.7
2022-08-02T15:39:21.595Z,47.2
2022-08-02T15:44:56.424Z,45.9
2022-08-02T15:50:31.349Z,45.7
2022-08-02T15:56:13.177Z,44.9
2022-08-02T16:01:58.368Z,43.3
2022-08-02T16:07:41.173Z,42.3
2022-08-02T16:13:16.525Z,42.1
2022-08-02T16:18:51.678Z,40.8
2022-08-02T16:24:26.572Z,40.1
2022-08-02T16:30:01.700Z,40
2022-08-02T16:35:36.832Z,39.4
2022-08-02T16:41:22.269Z,38.4
2022-08-02T16:47:12.268Z,37
2022-08-02T16:52:52.026Z,36.9
2022-08-02T16:58:27.861Z,36.9
2022-08-02T17:04:06.250Z,36.9
2022-08-02T17:10:06.597Z,38.2
2022-08-02T17:16:20.191Z,37.9
2022-08-02T17:22:01.675Z,40.2
2022-08-02T17:27:37.546Z,40.9
2022-08-02T17:33:14.246Z,41.7
2022-08-02T17:38:52.169Z,42.5
2022-08-02T17:44:38.745Z,42.6
2022-08-02T17:50:14.963Z,43.2
2022-08-02T17:55:51.469Z,44
2022-08-02T18:01:26.393Z,44.4
2022-08-02T18:07:10.338Z,45.1
2022-08-02T18:12:56.303Z,45.3
2022-08-02T18:18:33.009Z,45.9
2022-08-02T18:24:11.242Z,46.2
2022-08-02T18:29:47.633Z,46.5
2022-08-02T18:35:39.893Z,46.3
2022-08-02T18:41:15.059Z,46.1
2022-08-02T18:46:54.945Z,45.9
2022-08-02T18:52:32.019Z,45.7
2022-08-02T18:58:20.354Z,46.1
2022-08-02T19:03:56.681Z,46.5
2022-08-02T19:09:33.299Z,47
2022-08-02T19:15:08.291Z,47.6
2022-08-02T19:20:53.588Z,48.1
2022-08-02T23:04:49.064Z,66.8
2022-08-02T23:10:23.478Z,67.1
2022-08-02T23:15:58.198Z,67
2022-08-02T23:22:03.312Z,67.1
2022-08-02T23:27:38.560Z,67.3
2022-08-02T23:33:25.522Z,67.2
2022-08-02T23:39:00.574Z,67.3
2022-08-02T23:44:35.341Z,67.2
2022-08-02T23:50:11.241Z,67.1
2022-08-02T23:55:45.889Z,67.2
